sensor_id;sensor_type;location;lat;lon;timestamp;temperature;humidity
49385;DHT22;36795;45.028;38.968;2023-08-07T00:01:23;30.00;58.30
49385;DHT22;36795;45.028;38.968;2023-08-07T00:04:41;30.00;58.50
49385;DHT22;36795;45.028;38.968;2023-08-07T00:07:48;30.00;58.60
49385;DHT22;36795;45.028;38.968;2023-08-07T00:11:13;29.90;59.40
49385;DHT22;36795;45.028;38.968;2023-08-07T00:18:16;29.70;60.50
49385;DHT22;36795;45.028;38.968;2023-08-07T00:21:17;29.60;62.30
49385;DHT22;36795;45.028;38.968;2023-08-07T00:24:38;29.40;63.70
49385;DHT22;36795;45.028;38.968;2023-08-07T00:27:54;29.30;64.90
49385;DHT22;36795;45.028;38.968;2023-08-07T00:31:04;29.20;65.20
49385;DHT22;36795;45.028;38.968;2023-08-07T00:34:24;29.20;65.70
49385;DHT22;36795;45.028;38.968;2023-08-07T00:37:28;29.10;66.20
49385;DHT22;36795;45.028;38.968;2023-08-07T00:40:57;29.00;66.80
49385;DHT22;36795;45.028;38.968;2023-08-07T00:44:16;28.90;67.00
49385;DHT22;36795;45.028;38.968;2023-08-07T00:47:32;28.80;67.10
49385;DHT22;36795;45.028;38.968;2023-08-07T00:50:49;28.80;67.10
49385;DHT22;36795;45.028;38.968;2023-08-07T00:54:04;28.80;67.00
49385;DHT22;36795;45.028;38.968;2023-08-07T00:57:26;28.80;67.10
49385;DHT22;36795;45.028;38.968;2023-08-07T01:00:40;28.70;66.90
49385;DHT22;36795;45.028;38.968;2023-08-07T01:03:51;28.70;67.40
49385;DHT22;36795;45.028;38.968;2023-08-07T01:07:10;28.70;67.50
49385;DHT22;36795;45.028;38.968;2023-08-07T01:10:45;28.70;67.60
49385;DHT22;36795;45.028;38.968;2023-08-07T01:17:50;28.50;67.90
49385;DHT22;36795;45.028;38.968;2023-08-07T01:21:23;28.50;67.90
49385;DHT22;36795;45.028;38.968;2023-08-07T01:24:43;28.50;68.00
49385;DHT22;36795;45.028;38.968;2023-08-07T01:28:19;28.40;68.00
49385;DHT22;36795;45.028;38.968;2023-08-07T01:31:28;28.40;68.20
49385;DHT22;36795;45.028;38.968;2023-08-07T01:34:53;28.40;68.20
49385;DHT22;36795;45.028;38.968;2023-08-07T01:38:16;28.40;68.20
49385;DHT22;36795;45.028;38.968;2023-08-07T01:45:02;28.30;68.40
49385;DHT22;36795;45.028;38.968;2023-08-07T01:48:23;28.20;68.80
49385;DHT22;36795;45.028;38.968;2023-08-07T01:51:46;28.20;69.00
49385;DHT22;36795;45.028;38.968;2023-08-07T01:55:08;28.20;69.10
49385;DHT22;36795;45.028;38.968;2023-08-07T01:58:32;28.20;69.20
49385;DHT22;36795;45.028;38.968;2023-08-07T02:02:19;28.20;69.40
49385;DHT22;36795;45.028;38.968;2023-08-07T02:05:23;28.10;69.50
49385;DHT22;36795;45.028;38.968;2023-08-07T02:08:38;28.20;69.70
49385;DHT22;36795;45.028;38.968;2023-08-07T02:11:54;28.20;69.60
49385;DHT22;36795;45.028;38.968;2023-08-07T02:15:16;28.20;70.10
49385;DHT22;36795;45.028;38.968;2023-08-07T02:18:21;28.10;70.10
49385;DHT22;36795;45.028;38.968;2023-08-07T02:21:38;28.10;69.80
49385;DHT22;36795;45.028;38.968;2023-08-07T02:25:09;28.10;70.20
49385;DHT22;36795;45.028;38.968;2023-08-07T02:28:14;28.10;70.40
49385;DHT22;36795;45.028;38.968;2023-08-07T02:31:25;28.10;70.60
49385;DHT22;36795;45.028;38.968;2023-08-07T02:34:47;28.00;70.90
49385;DHT22;36795;45.028;38.968;2023-08-07T02:37:57;28.00;71.60
49385;DHT22;36795;45.028;38.968;2023-08-07T02:40:57;28.00;71.00
49385;DHT22;36795;45.028;38.968;2023-08-07T02:44:05;28.00;71.00
49385;DHT22;36795;45.028;38.968;2023-08-07T02:47:13;28.00;71.00
49385;DHT22;36795;45.028;38.968;2023-08-07T02:49:58;28.00;71.00
49385;DHT22;36795;45.028;38.968;2023-08-07T02:52:45;28.00;71.00
49385;DHT22;36795;45.028;38.968;2023-08-07T02:55:31;28.10;71.10
49385;DHT22;36795;45.028;38.968;2023-08-07T02:58:23;28.10;71.10
49385;DHT22;36795;45.028;38.968;2023-08-07T03:01:28;28.10;71.30
49385;DHT22;36795;45.028;38.968;2023-08-07T03:04:44;28.00;71.40
49385;DHT22;36795;45.028;38.968;2023-08-07T03:07:46;28.00;71.50
49385;DHT22;36795;45.028;38.968;2023-08-07T03:11:09;28.10;72.00
49385;DHT22;36795;45.028;38.968;2023-08-07T03:14:29;28.10;71.20
49385;DHT22;36795;45.028;38.968;2023-08-07T03:17:47;28.10;71.20
49385;DHT22;36795;45.028;38.968;2023-08-07T03:24:33;28.30;70.50
49385;DHT22;36795;45.028;38.968;2023-08-07T03:27:49;28.40;70.30
49385;DHT22;36795;45.028;38.968;2023-08-07T03:31:07;28.50;70.10
49385;DHT22;36795;45.028;38.968;2023-08-07T03:37:32;28.70;69.60
49385;DHT22;36795;45.028;38.968;2023-08-07T03:40:43;28.80;69.20
49385;DHT22;36795;45.028;38.968;2023-08-07T03:43:54;28.90;68.60
49385;DHT22;36795;45.028;38.968;2023-08-07T03:47:06;29.00;68.40
49385;DHT22;36795;45.028;38.968;2023-08-07T03:50:11;29.10;68.20
49385;DHT22;36795;45.028;38.968;2023-08-07T03:53:44;29.10;68.00
49385;DHT22;36795;45.028;38.968;2023-08-07T03:57:00;29.10;68.20
49385;DHT22;36795;45.028;38.968;2023-08-07T04:00:09;29.10;68.00
49385;DHT22;36795;45.028;38.968;2023-08-07T04:03:07;29.20;68.10
49385;DHT22;36795;45.028;38.968;2023-08-07T04:06:37;29.20;67.80
49385;DHT22;36795;45.028;38.968;2023-08-07T04:09:47;29.30;67.40
49385;DHT22;36795;45.028;38.968;2023-08-07T04:12:54;29.30;67.40
49385;DHT22;36795;45.028;38.968;2023-08-07T04:16:14;29.40;67.20
49385;DHT22;36795;45.028;38.968;2023-08-07T04:19:44;29.40;67.00
49385;DHT22;36795;45.028;38.968;2023-08-07T04:22:57;29.40;66.90
49385;DHT22;36795;45.028;38.968;2023-08-07T04:26:48;29.50;66.80
49385;DHT22;36795;45.028;38.968;2023-08-07T04:30:05;29.60;66.60
49385;DHT22;36795;45.028;38.968;2023-08-07T04:33:29;29.60;66.30
49385;DHT22;36795;45.028;38.968;2023-08-07T04:36:43;29.70;66.10
49385;DHT22;36795;45.028;38.968;2023-08-07T04:39:46;29.80;66.00
49385;DHT22;36795;45.028;38.968;2023-08-07T04:43:22;29.80;66.20
49385;DHT22;36795;45.028;38.968;2023-08-07T04:46:32;29.80;66.20
49385;DHT22;36795;45.028;38.968;2023-08-07T04:50:01;29.90;66.50
49385;DHT22;36795;45.028;38.968;2023-08-07T04:53:15;29.90;66.50
49385;DHT22;36795;45.028;38.968;2023-08-07T04:56:24;30.00;66.50
49385;DHT22;36795;45.028;38.968;2023-08-07T04:59:29;30.10;66.30
49385;DHT22;36795;45.028;38.968;2023-08-07T05:02:49;30.10;66.40
49385;DHT22;36795;45.028;38.968;2023-08-07T05:06:23;30.20;66.40
49385;DHT22;36795;45.028;38.968;2023-08-07T05:09:27;30.20;66.20
49385;DHT22;36795;45.028;38.968;2023-08-07T05:12:58;30.30;66.10
49385;DHT22;36795;45.028;38.968;2023-08-07T05:16:05;30.40;66.00
49385;DHT22;36795;45.028;38.968;2023-08-07T05:19:10;30.40;66.00
49385;DHT22;36795;45.028;38.968;2023-08-07T05:22:21;30.40;66.00
49385;DHT22;36795;45.028;38.968;2023-08-07T05:25:26;30.40;65.70
49385;DHT22;36795;45.028;38.968;2023-08-07T05:28:32;30.40;66.00
49385;DHT22;36795;45.028;38.968;2023-08-07T05:31:31;30.40;65.90
49385;DHT22;36795;45.028;38.968;2023-08-07T05:34:43;30.60;65.80
49385;DHT22;36795;45.028;38.968;2023-08-07T05:37:53;30.70;65.50
49385;DHT22;36795;45.028;38.968;2023-08-07T05:40:59;30.80;65.60
49385;DHT22;36795;45.028;38.968;2023-08-07T05:43:54;30.80;65.70
49385;DHT22;36795;45.028;38.968;2023-08-07T05:47:23;30.90;65.70
49385;DHT22;36795;45.028;38.968;2023-08-07T05:50:23;31.00;65.40
49385;DHT22;36795;45.028;38.968;2023-08-07T05:53:34;31.00;65.40
49385;DHT22;36795;45.028;38.968;2023-08-07T05:56:40;31.00;65.40
49385;DHT22;36795;45.028;38.968;2023-08-07T05:59:43;31.00;65.20
49385;DHT22;36795;45.028;38.968;2023-08-07T06:02:57;31.00;65.10
49385;DHT22;36795;45.028;38.968;2023-08-07T06:06:04;31.10;64.80
49385;DHT22;36795;45.028;38.968;2023-08-07T06:09:24;31.20;63.30
49385;DHT22;36795;45.028;38.968;2023-08-07T06:12:36;31.20;63.10
49385;DHT22;36795;45.028;38.968;2023-08-07T06:15:34;31.30;62.70
49385;DHT22;36795;45.028;38.968;2023-08-07T06:18:34;31.40;61.80
49385;DHT22;36795;45.028;38.968;2023-08-07T06:21:43;31.50;61.40
49385;DHT22;36795;45.028;38.968;2023-08-07T06:24:59;31.60;61.10
49385;DHT22;36795;45.028;38.968;2023-08-07T06:28:06;31.70;60.20
49385;DHT22;36795;45.028;38.968;2023-08-07T06:31:13;31.80;60.20
49385;DHT22;36795;45.028;38.968;2023-08-07T06:34:27;31.80;60.80
49385;DHT22;36795;45.028;38.968;2023-08-07T06:37:33;31.90;60.60
49385;DHT22;36795;45.028;38.968;2023-08-07T06:40:37;32.10;60.00
49385;DHT22;36795;45.028;38.968;2023-08-07T06:43:45;32.30;59.20
49385;DHT22;36795;45.028;38.968;2023-08-07T06:47:13;32.40;59.00
49385;DHT22;36795;45.028;38.968;2023-08-07T06:50:18;32.40;58.50
49385;DHT22;36795;45.028;38.968;2023-08-07T06:53:30;32.40;58.30
49385;DHT22;36795;45.028;38.968;2023-08-07T06:56:45;32.40;58.10
49385;DHT22;36795;45.028;38.968;2023-08-07T06:59:47;32.40;57.80
49385;DHT22;36795;45.028;38.968;2023-08-07T07:03:17;32.50;57.60
49385;DHT22;36795;45.028;38.968;2023-08-07T07:06:15;32.60;56.90
49385;DHT22;36795;45.028;38.968;2023-08-07T07:09:24;32.60;57.00
49385;DHT22;36795;45.028;38.968;2023-08-07T07:12:25;32.70;56.90
49385;DHT22;36795;45.028;38.968;2023-08-07T07:15:46;32.80;57.20
49385;DHT22;36795;45.028;38.968;2023-08-07T07:18:53;32.90;56.10
49385;DHT22;36795;45.028;38.968;2023-08-07T07:22:17;33.10;55.50
49385;DHT22;36795;45.028;38.968;2023-08-07T07:25:33;33.30;55.20
49385;DHT22;36795;45.028;38.968;2023-08-07T07:28:51;33.70;54.90
49385;DHT22;36795;45.028;38.968;2023-08-07T07:32:03;33.90;54.00
49385;DHT22;36795;45.028;38.968;2023-08-07T07:35:13;34.10;54.00
49385;DHT22;36795;45.028;38.968;2023-08-07T07:38:21;34.30;54.60
49385;DHT22;36795;45.028;38.968;2023-08-07T07:41:41;34.50;53.60
49385;DHT22;36795;45.028;38.968;2023-08-07T07:44:47;34.70;53.50
49385;DHT22;36795;45.028;38.968;2023-08-07T07:48:21;35.10;52.90
49385;DHT22;36795;45.028;38.968;2023-08-07T07:51:33;35.30;52.50
49385;DHT22;36795;45.028;38.968;2023-08-07T07:55:10;35.70;51.90
49385;DHT22;36795;45.028;38.968;2023-08-07T07:58:24;35.80;51.60
49385;DHT22;36795;45.028;38.968;2023-08-07T08:01:32;36.10;51.20
49385;DHT22;36795;45.028;38.968;2023-08-07T08:04:54;37.10;49.00
49385;DHT22;36795;45.028;38.968;2023-08-07T08:08:03;38.20;47.60
49385;DHT22;36795;45.028;38.968;2023-08-07T08:11:40;38.50;47.30
49385;DHT22;36795;45.028;38.968;2023-08-07T08:15:13;38.10;47.40
49385;DHT22;36795;45.028;38.968;2023-08-07T08:18:24;37.60;48.00
49385;DHT22;36795;45.028;38.968;2023-08-07T08:21:34;37.00;48.80
49385;DHT22;36795;45.028;38.968;2023-08-07T08:24:37;36.20;49.70
49385;DHT22;36795;45.028;38.968;2023-08-07T08:27:47;35.80;51.10
49385;DHT22;36795;45.028;38.968;2023-08-07T08:30:54;35.60;52.10
49385;DHT22;36795;45.028;38.968;2023-08-07T08:34:02;35.30;52.50
49385;DHT22;36795;45.028;38.968;2023-08-07T08:37:14;35.30;52.50
49385;DHT22;36795;45.028;38.968;2023-08-07T08:40:32;35.40;52.40
49385;DHT22;36795;45.028;38.968;2023-08-07T08:43:30;35.50;51.80
49385;DHT22;36795;45.028;38.968;2023-08-07T08:46:35;35.50;52.00
49385;DHT22;36795;45.028;38.968;2023-08-07T08:49:41;35.50;52.20
49385;DHT22;36795;45.028;38.968;2023-08-07T08:52:58;35.40;52.50
49385;DHT22;36795;45.028;38.968;2023-08-07T08:56:01;35.20;52.50
49385;DHT22;36795;45.028;38.968;2023-08-07T08:59:04;35.20;52.60
49385;DHT22;36795;45.028;38.968;2023-08-07T09:02:14;35.10;52.80
49385;DHT22;36795;45.028;38.968;2023-08-07T09:05:23;35.20;52.60
49385;DHT22;36795;45.028;38.968;2023-08-07T09:08:34;35.60;52.30
49385;DHT22;36795;45.028;38.968;2023-08-07T09:11:33;36.50;51.60
49385;DHT22;36795;45.028;38.968;2023-08-07T09:14:35;37.40;49.50
49385;DHT22;36795;45.028;38.968;2023-08-07T09:17:58;38.10;48.20
49385;DHT22;36795;45.028;38.968;2023-08-07T09:21:05;38.50;47.10
49385;DHT22;36795;45.028;38.968;2023-08-07T09:24:12;38.50;46.90
49385;DHT22;36795;45.028;38.968;2023-08-07T09:27:22;38.00;47.60
49385;DHT22;36795;45.028;38.968;2023-08-07T09:30:34;37.40;48.80
49385;DHT22;36795;45.028;38.968;2023-08-07T09:33:37;36.80;50.10
49385;DHT22;36795;45.028;38.968;2023-08-07T09:36:44;36.50;50.80
49385;DHT22;36795;45.028;38.968;2023-08-07T09:40:10;36.30;51.40
49385;DHT22;36795;45.028;38.968;2023-08-07T09:43:10;35.90;51.90
49385;DHT22;36795;45.028;38.968;2023-08-07T09:46:53;35.80;52.40
49385;DHT22;36795;45.028;38.968;2023-08-07T09:50:04;35.70;52.40
49385;DHT22;36795;45.028;38.968;2023-08-07T09:53:11;35.50;52.80
49385;DHT22;36795;45.028;38.968;2023-08-07T09:56:16;35.50;52.90
49385;DHT22;36795;45.028;38.968;2023-08-07T09:59:51;35.50;53.40
49385;DHT22;36795;45.028;38.968;2023-08-07T10:03:06;35.50;52.80
49385;DHT22;36795;45.028;38.968;2023-08-07T10:06:09;35.60;52.90
49385;DHT22;36795;45.028;38.968;2023-08-07T10:09:18;35.60;53.20
49385;DHT22;36795;45.028;38.968;2023-08-07T10:12:22;35.70;53.10
49385;DHT22;36795;45.028;38.968;2023-08-07T10:15:29;35.80;53.10
49385;DHT22;36795;45.028;38.968;2023-08-07T10:19:06;36.00;52.70
49385;DHT22;36795;45.028;38.968;2023-08-07T10:22:11;35.70;52.30
49385;DHT22;36795;45.028;38.968;2023-08-07T10:25:15;35.80;52.60
49385;DHT22;36795;45.028;38.968;2023-08-07T10:28:30;35.80;52.20
49385;DHT22;36795;45.028;38.968;2023-08-07T10:31:40;35.90;52.20
49385;DHT22;36795;45.028;38.968;2023-08-07T10:35:09;36.00;52.10
49385;DHT22;36795;45.028;38.968;2023-08-07T10:38:34;36.10;52.00
49385;DHT22;36795;45.028;38.968;2023-08-07T10:41:55;36.10;52.30
49385;DHT22;36795;45.028;38.968;2023-08-07T10:45:12;36.10;51.90
49385;DHT22;36795;45.028;38.968;2023-08-07T10:48:25;36.20;52.30
49385;DHT22;36795;45.028;38.968;2023-08-07T10:51:37;36.20;52.40
49385;DHT22;36795;45.028;38.968;2023-08-07T10:54:51;36.10;52.30
49385;DHT22;36795;45.028;38.968;2023-08-07T10:58:04;36.20;52.30
49385;DHT22;36795;45.028;38.968;2023-08-07T11:04:24;36.30;52.40
49385;DHT22;36795;45.028;38.968;2023-08-07T11:07:29;36.40;52.40
49385;DHT22;36795;45.028;38.968;2023-08-07T11:10:27;36.60;51.90
49385;DHT22;36795;45.028;38.968;2023-08-07T11:13:31;36.60;51.90
49385;DHT22;36795;45.028;38.968;2023-08-07T11:16:35;36.60;52.10
49385;DHT22;36795;45.028;38.968;2023-08-07T11:19:33;36.70;51.80
49385;DHT22;36795;45.028;38.968;2023-08-07T11:22:50;36.70;51.70
49385;DHT22;36795;45.028;38.968;2023-08-07T11:25:47;36.50;52.00
49385;DHT22;36795;45.028;38.968;2023-08-07T11:29:16;36.50;52.40
49385;DHT22;36795;45.028;38.968;2023-08-07T11:32:30;36.50;51.80
49385;DHT22;36795;45.028;38.968;2023-08-07T11:35:47;36.50;51.40
49385;DHT22;36795;45.028;38.968;2023-08-07T11:38:54;36.50;51.70
49385;DHT22;36795;45.028;38.968;2023-08-07T11:42:03;36.40;51.90
49385;DHT22;36795;45.028;38.968;2023-08-07T11:45:01;36.50;52.00
49385;DHT22;36795;45.028;38.968;2023-08-07T11:48:03;36.60;51.60
49385;DHT22;36795;45.028;38.968;2023-08-07T11:51:10;36.90;51.50
49385;DHT22;36795;45.028;38.968;2023-08-07T11:54:13;37.10;51.50
49385;DHT22;36795;45.028;38.968;2023-08-07T11:57:22;37.20;50.70
49385;DHT22;36795;45.028;38.968;2023-08-07T12:00:31;37.20;50.20
49385;DHT22;36795;45.028;38.968;2023-08-07T12:03:37;37.20;49.70
49385;DHT22;36795;45.028;38.968;2023-08-07T12:06:51;37.50;50.00
49385;DHT22;36795;45.028;38.968;2023-08-07T12:09:58;38.10;49.40
49385;DHT22;36795;45.028;38.968;2023-08-07T12:13:12;38.80;48.60
49385;DHT22;36795;45.028;38.968;2023-08-07T12:16:20;38.90;47.30
49385;DHT22;36795;45.028;38.968;2023-08-07T12:19:41;38.60;48.20
49385;DHT22;36795;45.028;38.968;2023-08-07T12:22:48;38.30;48.50
49385;DHT22;36795;45.028;38.968;2023-08-07T12:25:46;38.00;48.70
49385;DHT22;36795;45.028;38.968;2023-08-07T12:28:43;38.00;48.30
49385;DHT22;36795;45.028;38.968;2023-08-07T12:31:47;38.20;47.70
49385;DHT22;36795;45.028;38.968;2023-08-07T12:35:03;38.40;47.20
49385;DHT22;36795;45.028;38.968;2023-08-07T12:38:04;38.80;46.60
49385;DHT22;36795;45.028;38.968;2023-08-07T12:41:06;39.00;46.10
49385;DHT22;36795;45.028;38.968;2023-08-07T12:44:11;38.80;46.20
49385;DHT22;36795;45.028;38.968;2023-08-07T12:47:23;38.50;46.90
49385;DHT22;36795;45.028;38.968;2023-08-07T12:50:29;38.10;48.20
49385;DHT22;36795;45.028;38.968;2023-08-07T12:53:27;37.60;47.70
49385;DHT22;36795;45.028;38.968;2023-08-07T12:56:32;37.40;48.60
49385;DHT22;36795;45.028;38.968;2023-08-07T12:59:36;37.20;48.80
49385;DHT22;36795;45.028;38.968;2023-08-07T13:02:56;37.20;48.80
49385;DHT22;36795;45.028;38.968;2023-08-07T13:05:51;37.00;49.20
49385;DHT22;36795;45.028;38.968;2023-08-07T13:08:57;36.90;49.60
49385;DHT22;36795;45.028;38.968;2023-08-07T13:12:02;37.00;49.80
49385;DHT22;36795;45.028;38.968;2023-08-07T13:15:32;37.10;49.80
49385;DHT22;36795;45.028;38.968;2023-08-07T13:18:53;37.10;50.10
49385;DHT22;36795;45.028;38.968;2023-08-07T13:21:54;37.10;50.20
49385;DHT22;36795;45.028;38.968;2023-08-07T13:24:53;37.20;50.20
49385;DHT22;36795;45.028;38.968;2023-08-07T13:27:59;37.00;50.10
49385;DHT22;36795;45.028;38.968;2023-08-07T13:31:13;36.90;50.40
49385;DHT22;36795;45.028;38.968;2023-08-07T13:34:10;37.10;50.00
49385;DHT22;36795;45.028;38.968;2023-08-07T13:37:10;37.30;49.90
49385;DHT22;36795;45.028;38.968;2023-08-07T13:40:27;37.50;49.80
49385;DHT22;36795;45.028;38.968;2023-08-07T13:43:23;37.90;49.30
49385;DHT22;36795;45.028;38.968;2023-08-07T13:46:23;38.00;48.80
49385;DHT22;36795;45.028;38.968;2023-08-07T13:49:30;38.10;48.30
49385;DHT22;36795;45.028;38.968;2023-08-07T13:52:34;38.70;47.40
49385;DHT22;36795;45.028;38.968;2023-08-07T13:55:45;39.50;46.20
49385;DHT22;36795;45.028;38.968;2023-08-07T13:59:25;40.50;44.60
49385;DHT22;36795;45.028;38.968;2023-08-07T14:02:30;41.50;42.70
49385;DHT22;36795;45.028;38.968;2023-08-07T14:05:46;42.10;42.10
49385;DHT22;36795;45.028;38.968;2023-08-07T14:09:09;42.20;41.90
49385;DHT22;36795;45.028;38.968;2023-08-07T14:12:21;42.60;41.50
49385;DHT22;36795;45.028;38.968;2023-08-07T14:15:22;42.80;41.10
49385;DHT22;36795;45.028;38.968;2023-08-07T14:18:30;43.00;40.70
49385;DHT22;36795;45.028;38.968;2023-08-07T14:21:30;43.10;40.30
49385;DHT22;36795;45.028;38.968;2023-08-07T14:24:35;42.90;40.70
49385;DHT22;36795;45.028;38.968;2023-08-07T14:27:42;42.50;40.90
49385;DHT22;36795;45.028;38.968;2023-08-07T14:30:45;42.00;41.10
49385;DHT22;36795;45.028;38.968;2023-08-07T14:33:53;41.00;42.10
49385;DHT22;36795;45.028;38.968;2023-08-07T14:36:54;40.20;43.20
49385;DHT22;36795;45.028;38.968;2023-08-07T14:40:02;40.00;43.40
49385;DHT22;36795;45.028;38.968;2023-08-07T14:43:11;39.90;43.80
49385;DHT22;36795;45.028;38.968;2023-08-07T14:46:12;40.00;43.70
49385;DHT22;36795;45.028;38.968;2023-08-07T14:49:17;39.90;43.80
49385;DHT22;36795;45.028;38.968;2023-08-07T14:55:32;38.70;45.70
49385;DHT22;36795;45.028;38.968;2023-08-07T14:58:38;38.30;46.10
49385;DHT22;36795;45.028;38.968;2023-08-07T15:01:48;38.40;46.20
49385;DHT22;36795;45.028;38.968;2023-08-07T15:04:57;38.60;45.80
49385;DHT22;36795;45.028;38.968;2023-08-07T15:08:21;38.70;45.40
49385;DHT22;36795;45.028;38.968;2023-08-07T15:11:31;38.80;45.20
49385;DHT22;36795;45.028;38.968;2023-08-07T15:14:27;38.80;45.00
49385;DHT22;36795;45.028;38.968;2023-08-07T15:17:44;38.70;45.20
49385;DHT22;36795;45.028;38.968;2023-08-07T15:21:07;38.40;45.40
49385;DHT22;36795;45.028;38.968;2023-08-07T15:24:19;38.00;46.00
49385;DHT22;36795;45.028;38.968;2023-08-07T15:27:21;37.50;46.60
49385;DHT22;36795;45.028;38.968;2023-08-07T15:30:28;36.90;47.50
49385;DHT22;36795;45.028;38.968;2023-08-07T15:33:46;36.30;48.20
49385;DHT22;36795;45.028;38.968;2023-08-07T15:36:49;36.00;49.00
49385;DHT22;36795;45.028;38.968;2023-08-07T15:39:55;35.80;49.60
49385;DHT22;36795;45.028;38.968;2023-08-07T15:43:04;35.50;50.00
49385;DHT22;36795;45.028;38.968;2023-08-07T15:46:19;35.30;50.40
49385;DHT22;36795;45.028;38.968;2023-08-07T15:49:20;35.20;50.70
49385;DHT22;36795;45.028;38.968;2023-08-07T15:52:33;35.10;51.00
49385;DHT22;36795;45.028;38.968;2023-08-07T15:55:39;35.00;51.40
49385;DHT22;36795;45.028;38.968;2023-08-07T15:58:54;34.80;51.70
49385;DHT22;36795;45.028;38.968;2023-08-07T16:02:04;34.70;52.00
49385;DHT22;36795;45.028;38.968;2023-08-07T16:05:11;34.60;52.40
49385;DHT22;36795;45.028;38.968;2023-08-07T16:08:29;34.40;52.70
49385;DHT22;36795;45.028;38.968;2023-08-07T16:11:26;34.10;53.00
49385;DHT22;36795;45.028;38.968;2023-08-07T16:14:39;34.10;53.20
49385;DHT22;36795;45.028;38.968;2023-08-07T16:17:37;34.00;53.50
49385;DHT22;36795;45.028;38.968;2023-08-07T16:20:39;33.90;53.70
49385;DHT22;36795;45.028;38.968;2023-08-07T16:23:42;33.90;53.90
49385;DHT22;36795;45.028;38.968;2023-08-07T16:26:54;33.80;53.90
49385;DHT22;36795;45.028;38.968;2023-08-07T16:30:07;33.80;53.80
49385;DHT22;36795;45.028;38.968;2023-08-07T16:33:00;33.70;54.50
49385;DHT22;36795;45.028;38.968;2023-08-07T16:35:57;33.60;53.90
49385;DHT22;36795;45.028;38.968;2023-08-07T16:38:50;33.70;54.00
49385;DHT22;36795;45.028;38.968;2023-08-07T16:41:45;33.70;54.00
49385;DHT22;36795;45.028;38.968;2023-08-07T16:44:42;33.50;54.60
49385;DHT22;36795;45.028;38.968;2023-08-07T16:47:42;33.40;54.20
49385;DHT22;36795;45.028;38.968;2023-08-07T16:50:51;33.40;54.30
49385;DHT22;36795;45.028;38.968;2023-08-07T16:54:04;33.40;54.40
49385;DHT22;36795;45.028;38.968;2023-08-07T16:57:06;33.30;54.50
49385;DHT22;36795;45.028;38.968;2023-08-07T17:00:20;33.30;55.20
49385;DHT22;36795;45.028;38.968;2023-08-07T17:03:34;33.30;55.00
49385;DHT22;36795;45.028;38.968;2023-08-07T17:06:50;33.10;55.20
49385;DHT22;36795;45.028;38.968;2023-08-07T17:10:09;33.00;55.40
49385;DHT22;36795;45.028;38.968;2023-08-07T17:13:18;32.90;55.60
49385;DHT22;36795;45.028;38.968;2023-08-07T17:16:39;32.80;55.70
49385;DHT22;36795;45.028;38.968;2023-08-07T17:19:49;32.70;55.60
49385;DHT22;36795;45.028;38.968;2023-08-07T17:27:01;32.60;55.60
49385;DHT22;36795;45.028;38.968;2023-08-07T17:30:24;32.50;55.40
49385;DHT22;36795;45.028;38.968;2023-08-07T17:33:41;32.40;55.20
49385;DHT22;36795;45.028;38.968;2023-08-07T17:36:56;32.40;54.90
49385;DHT22;36795;45.028;38.968;2023-08-07T17:40:11;32.50;54.80
49385;DHT22;36795;45.028;38.968;2023-08-07T17:43:36;32.50;54.70
49385;DHT22;36795;45.028;38.968;2023-08-07T17:46:54;32.50;54.50
49385;DHT22;36795;45.028;38.968;2023-08-07T17:50:07;32.40;54.70
49385;DHT22;36795;45.028;38.968;2023-08-07T17:53:20;32.40;54.90
49385;DHT22;36795;45.028;38.968;2023-08-07T17:56:31;32.30;55.00
49385;DHT22;36795;45.028;38.968;2023-08-07T18:00:03;32.30;54.90
49385;DHT22;36795;45.028;38.968;2023-08-07T18:03:14;32.20;54.50
49385;DHT22;36795;45.028;38.968;2023-08-07T18:06:20;32.10;54.20
49385;DHT22;36795;45.028;38.968;2023-08-07T18:09:36;32.00;54.00
49385;DHT22;36795;45.028;38.968;2023-08-07T18:12:44;32.00;54.00
49385;DHT22;36795;45.028;38.968;2023-08-07T18:16:09;31.90;54.00
49385;DHT22;36795;45.028;38.968;2023-08-07T18:19:20;31.90;54.00
49385;DHT22;36795;45.028;38.968;2023-08-07T18:22:38;31.90;54.10
49385;DHT22;36795;45.028;38.968;2023-08-07T18:25:51;31.90;54.10
49385;DHT22;36795;45.028;38.968;2023-08-07T18:29:08;31.80;54.30
49385;DHT22;36795;45.028;38.968;2023-08-07T18:32:24;31.80;54.40
49385;DHT22;36795;45.028;38.968;2023-08-07T18:35:38;31.80;54.30
49385;DHT22;36795;45.028;38.968;2023-08-07T18:38:53;31.80;54.10
49385;DHT22;36795;45.028;38.968;2023-08-07T18:42:18;31.70;54.00
49385;DHT22;36795;45.028;38.968;2023-08-07T18:45:20;31.70;53.90
49385;DHT22;36795;45.028;38.968;2023-08-07T18:48:39;31.80;54.00
49385;DHT22;36795;45.028;38.968;2023-08-07T18:51:52;31.70;53.90
49385;DHT22;36795;45.028;38.968;2023-08-07T18:55:13;31.60;54.00
49385;DHT22;36795;45.028;38.968;2023-08-07T18:58:17;31.60;54.20
49385;DHT22;36795;45.028;38.968;2023-08-07T19:01:20;31.50;54.20
49385;DHT22;36795;45.028;38.968;2023-08-07T19:04:31;31.50;54.30
49385;DHT22;36795;45.028;38.968;2023-08-07T19:07:52;31.50;54.40
49385;DHT22;36795;45.028;38.968;2023-08-07T19:11:08;31.50;54.50
49385;DHT22;36795;45.028;38.968;2023-08-07T19:14:39;31.40;54.70
49385;DHT22;36795;45.028;38.968;2023-08-07T19:18:04;31.30;55.00
49385;DHT22;36795;45.028;38.968;2023-08-07T19:21:18;31.30;55.20
49385;DHT22;36795;45.028;38.968;2023-08-07T19:24:42;31.20;55.30
49385;DHT22;36795;45.028;38.968;2023-08-07T19:27:53;31.20;55.40
49385;DHT22;36795;45.028;38.968;2023-08-07T19:30:57;31.10;55.60
49385;DHT22;36795;45.028;38.968;2023-08-07T19:34:05;31.00;55.70
49385;DHT22;36795;45.028;38.968;2023-08-07T19:37:09;31.00;55.70
49385;DHT22;36795;45.028;38.968;2023-08-07T19:40:18;31.10;55.70
49385;DHT22;36795;45.028;38.968;2023-08-07T19:43:21;31.00;55.70
49385;DHT22;36795;45.028;38.968;2023-08-07T19:46:22;31.00;55.90
49385;DHT22;36795;45.028;38.968;2023-08-07T19:49:26;31.00;56.00
49385;DHT22;36795;45.028;38.968;2023-08-07T19:52:54;31.00;56.20
49385;DHT22;36795;45.028;38.968;2023-08-07T19:55:55;31.00;56.40
49385;DHT22;36795;45.028;38.968;2023-08-07T19:59:00;31.00;56.70
49385;DHT22;36795;45.028;38.968;2023-08-07T20:01:58;31.00;56.80
49385;DHT22;36795;45.028;38.968;2023-08-07T20:05:06;31.00;56.90
49385;DHT22;36795;45.028;38.968;2023-08-07T20:08:12;31.00;57.10
49385;DHT22;36795;45.028;38.968;2023-08-07T20:11:14;31.00;57.20
49385;DHT22;36795;45.028;38.968;2023-08-07T20:14:24;30.90;57.30
49385;DHT22;36795;45.028;38.968;2023-08-07T20:17:19;30.90;57.60